sensor_id;sensor_type;location;lat;lon;timestamp;pressure;altitude;pressure_sealevel;temperature;humidity
35655;BME280;21773;50.010;19.972;2023-03-03T00:00:44;99023.75;;;5.28;50.29
35655;BME280;21773;50.010;19.972;2023-03-03T00:03:47;99029.44;;;5.24;51.52
35655;BME280;21773;50.010;19.972;2023-03-03T00:06:52;99018.75;;;5.24;51.71
35655;BME280;21773;50.010;19.972;2023-03-03T00:09:55;99023.06;;;5.26;50.54
35655;BME280;21773;50.010;19.972;2023-03-03T00:12:59;99019.94;;;5.22;50.37
35655;BME280;21773;50.010;19.972;2023-03-03T00:16:13;99021.59;;;5.23;50.83
35655;BME280;21773;50.010;19.972;2023-03-03T00:19:18;99013.03;;;5.13;50.50
35655;BME280;21773;50.010;19.972;2023-03-03T00:22:27;99023.44;;;5.08;50.81
35655;BME280;21773;50.010;19.972;2023-03-03T00:25:33;99021.97;;;5.05;50.70
35655;BME280;21773;50.010;19.972;2023-03-03T00:28:43;99005.47;;;5.02;50.78
35655;BME280;21773;50.010;19.972;2023-03-03T00:31:48;99016.06;;;4.95;51.49
35655;BME280;21773;50.010;19.972;2023-03-03T00:34:53;99021.03;;;4.98;51.50
35655;BME280;21773;50.010;19.972;2023-03-03T00:37:59;99011.53;;;4.96;50.94
35655;BME280;21773;50.010;19.972;2023-03-03T00:41:06;99012.53;;;4.95;51.23
35655;BME280;21773;50.010;19.972;2023-03-03T00:44:31;99005.03;;;4.98;51.48
35655;BME280;21773;50.010;19.972;2023-03-03T00:47:37;99006.31;;;5.02;50.77
35655;BME280;21773;50.010;19.972;2023-03-03T00:50:43;99000.97;;;5.02;51.00
35655;BME280;21773;50.010;19.972;2023-03-03T00:53:48;98938.66;;;4.58;50.99
35655;BME280;21773;50.010;19.972;2023-03-03T00:56:51;98992.19;;;4.94;50.96
35655;BME280;21773;50.010;19.972;2023-03-03T00:59:55;98993.78;;;4.88;51.23
35655;BME280;21773;50.010;19.972;2023-03-03T01:03:01;98986.75;;;4.87;51.64
35655;BME280;21773;50.010;19.972;2023-03-03T01:06:05;98975.97;;;4.80;51.43
35655;BME280;21773;50.010;19.972;2023-03-03T01:09:10;98982.31;;;4.79;50.67
35655;BME280;21773;50.010;19.972;2023-03-03T01:12:14;98987.38;;;4.74;50.54
35655;BME280;21773;50.010;19.972;2023-03-03T01:15:18;98978.44;;;4.67;50.79
35655;BME280;21773;50.010;19.972;2023-03-03T01:18:21;98971.16;;;4.61;51.31
35655;BME280;21773;50.010;19.972;2023-03-03T01:21:25;98974.47;;;4.63;50.99
35655;BME280;21773;50.010;19.972;2023-03-03T01:24:30;98969.97;;;4.64;51.31
35655;BME280;21773;50.010;19.972;2023-03-03T01:27:35;98968.66;;;4.60;51.84
35655;BME280;21773;50.010;19.972;2023-03-03T01:30:39;98980.28;;;4.67;51.73
35655;BME280;21773;50.010;19.972;2023-03-03T01:33:42;98980.13;;;4.68;51.83
35655;BME280;21773;50.010;19.972;2023-03-03T01:36:45;98982.94;;;4.67;50.80
35655;BME280;21773;50.010;19.972;2023-03-03T01:39:51;98987.63;;;4.65;51.19
35655;BME280;21773;50.010;19.972;2023-03-03T01:42:54;98966.81;;;4.60;50.77
35655;BME280;21773;50.010;19.972;2023-03-03T01:46:25;98975.63;;;4.46;50.68
35655;BME280;21773;50.010;19.972;2023-03-03T01:49:33;98976.25;;;4.33;50.66
35655;BME280;21773;50.010;19.972;2023-03-03T01:52:41;98969.31;;;4.24;50.59
35655;BME280;21773;50.010;19.972;2023-03-03T01:55:49;98971.03;;;4.17;50.77
35655;BME280;21773;50.010;19.972;2023-03-03T01:58:58;98969.91;;;4.12;50.58
35655;BME280;21773;50.010;19.972;2023-03-03T02:02:04;98968.91;;;4.13;50.40
35655;BME280;21773;50.010;19.972;2023-03-03T02:05:08;98969.56;;;4.15;50.48
35655;BME280;21773;50.010;19.972;2023-03-03T02:08:14;98974.25;;;4.13;50.15
35655;BME280;21773;50.010;19.972;2023-03-03T02:11:22;98965.13;;;4.07;50.30
35655;BME280;21773;50.010;19.972;2023-03-03T02:14:25;98972.13;;;4.08;51.22
35655;BME280;21773;50.010;19.972;2023-03-03T02:17:29;98972.13;;;4.08;50.36
35655;BME280;21773;50.010;19.972;2023-03-03T02:20:45;98981.41;;;4.12;50.55
35655;BME280;21773;50.010;19.972;2023-03-03T02:24:01;98981.41;;;4.12;50.11
35655;BME280;21773;50.010;19.972;2023-03-03T02:27:08;98980.50;;;4.05;50.63
35655;BME280;21773;50.010;19.972;2023-03-03T02:30:15;98983.78;;;4.07;51.28
35655;BME280;21773;50.010;19.972;2023-03-03T02:33:19;98973.59;;;4.11;50.96
35655;BME280;21773;50.010;19.972;2023-03-03T02:36:24;98971.41;;;4.14;50.71
35655;BME280;21773;50.010;19.972;2023-03-03T02:39:28;98970.22;;;4.17;49.87
35655;BME280;21773;50.010;19.972;2023-03-03T02:42:33;98958.69;;;4.16;50.87
35655;BME280;21773;50.010;19.972;2023-03-03T02:45:41;98964.34;;;4.21;50.19
35655;BME280;21773;50.010;19.972;2023-03-03T02:48:45;98970.16;;;4.25;51.19
35655;BME280;21773;50.010;19.972;2023-03-03T02:51:49;98969.38;;;4.16;49.98
35655;BME280;21773;50.010;19.972;2023-03-03T02:54:53;98977.44;;;4.08;51.45
35655;BME280;21773;50.010;19.972;2023-03-03T02:57:57;98968.03;;;3.98;49.94
35655;BME280;21773;50.010;19.972;2023-03-03T03:01:01;98976.25;;;3.88;50.70
35655;BME280;21773;50.010;19.972;2023-03-03T03:04:07;98971.28;;;3.85;50.27
35655;BME280;21773;50.010;19.972;2023-03-03T03:07:16;98982.59;;;3.87;50.58
35655;BME280;21773;50.010;19.972;2023-03-03T03:10:19;98977.78;;;3.82;50.74
35655;BME280;21773;50.010;19.972;2023-03-03T03:13:25;98968.63;;;3.85;50.60
35655;BME280;21773;50.010;19.972;2023-03-03T03:16:29;98968.63;;;3.85;51.11
35655;BME280;21773;50.010;19.972;2023-03-03T03:19:33;98947.53;;;3.75;50.58
35655;BME280;21773;50.010;19.972;2023-03-03T03:22:37;98971.09;;;3.86;50.36
35655;BME280;21773;50.010;19.972;2023-03-03T03:25:42;98972.66;;;3.81;50.38
35655;BME280;21773;50.010;19.972;2023-03-03T03:28:55;98964.28;;;3.61;50.09
35655;BME280;21773;50.010;19.972;2023-03-03T03:31:59;98962.03;;;3.73;50.22
35655;BME280;21773;50.010;19.972;2023-03-03T03:35:02;98963.38;;;3.69;50.82
35655;BME280;21773;50.010;19.972;2023-03-03T03:38:06;98952.78;;;3.61;50.48
35655;BME280;21773;50.010;19.972;2023-03-03T03:41:10;98970.91;;;3.65;51.25
35655;BME280;21773;50.010;19.972;2023-03-03T03:44:15;98965.53;;;3.73;50.63
35655;BME280;21773;50.010;19.972;2023-03-03T03:47:19;98968.34;;;3.72;50.79
35655;BME280;21773;50.010;19.972;2023-03-03T03:50:23;98964.69;;;3.73;50.11
35655;BME280;21773;50.010;19.972;2023-03-03T03:53:26;98965.97;;;3.77;50.11
35655;BME280;21773;50.010;19.972;2023-03-03T03:56:30;98959.19;;;3.74;49.93
35655;BME280;21773;50.010;19.972;2023-03-03T03:59:37;98967.56;;;3.63;50.13
35655;BME280;21773;50.010;19.972;2023-03-03T04:02:40;98973.56;;;3.65;49.90
35655;BME280;21773;50.010;19.972;2023-03-03T04:05:47;98963.47;;;3.53;49.66
35655;BME280;21773;50.010;19.972;2023-03-03T04:08:52;98959.53;;;3.40;49.80
35655;BME280;21773;50.010;19.972;2023-03-03T04:11:57;98961.22;;;3.33;50.03
35655;BME280;21773;50.010;19.972;2023-03-03T04:15:07;98968.41;;;3.33;50.75
35655;BME280;21773;50.010;19.972;2023-03-03T04:18:12;98966.22;;;3.36;49.96
35655;BME280;21773;50.010;19.972;2023-03-03T04:21:15;98960.72;;;3.38;50.03
35655;BME280;21773;50.010;19.972;2023-03-03T04:24:20;98958.03;;;3.38;49.91
35655;BME280;21773;50.010;19.972;2023-03-03T04:27:25;98954.91;;;3.34;49.78
35655;BME280;21773;50.010;19.972;2023-03-03T04:30:30;98958.56;;;3.33;49.50
35655;BME280;21773;50.010;19.972;2023-03-03T04:33:34;98964.41;;;3.37;49.57
35655;BME280;21773;50.010;19.972;2023-03-03T04:36:39;98962.75;;;3.36;49.44
35655;BME280;21773;50.010;19.972;2023-03-03T04:39:42;98969.59;;;3.30;50.59
35655;BME280;21773;50.010;19.972;2023-03-03T04:42:46;98966.59;;;3.25;50.31
35655;BME280;21773;50.010;19.972;2023-03-03T04:45:51;98971.31;;;3.15;50.13
35655;BME280;21773;50.010;19.972;2023-03-03T04:48:56;98969.66;;;3.14;50.15
35655;BME280;21773;50.010;19.972;2023-03-03T04:52:01;98974.34;;;3.12;50.42
35655;BME280;21773;50.010;19.972;2023-03-03T04:55:05;98969.69;;;3.06;50.35
35655;BME280;21773;50.010;19.972;2023-03-03T04:58:12;98971.88;;;3.02;50.39
35655;BME280;21773;50.010;19.972;2023-03-03T05:01:19;98959.06;;;2.98;50.39
35655;BME280;21773;50.010;19.972;2023-03-03T05:04:22;98979.00;;;3.10;50.02
35655;BME280;21773;50.010;19.972;2023-03-03T05:07:26;98958.03;;;2.99;50.03
35655;BME280;21773;50.010;19.972;2023-03-03T05:10:29;98976.84;;;3.05;49.45
35655;BME280;21773;50.010;19.972;2023-03-03T05:13:35;98986.34;;;3.00;49.45
35655;BME280;21773;50.010;19.972;2023-03-03T05:16:40;98981.38;;;2.97;49.61
35655;BME280;21773;50.010;19.972;2023-03-03T05:19:43;98987.69;;;2.96;50.08
35655;BME280;21773;50.010;19.972;2023-03-03T05:22:47;98975.38;;;2.95;50.66
35655;BME280;21773;50.010;19.972;2023-03-03T05:25:51;98980.69;;;2.95;50.09
35655;BME280;21773;50.010;19.972;2023-03-03T05:28:54;98979.75;;;2.88;50.20
35655;BME280;21773;50.010;19.972;2023-03-03T05:31:59;98981.88;;;2.92;50.95
35655;BME280;21773;50.010;19.972;2023-03-03T05:35:02;98988.69;;;2.95;50.76
35655;BME280;21773;50.010;19.972;2023-03-03T05:38:06;98981.50;;;3.03;50.35
35655;BME280;21773;50.010;19.972;2023-03-03T05:41:09;98989.47;;;3.03;50.39
35655;BME280;21773;50.010;19.972;2023-03-03T05:44:13;98997.31;;;3.05;50.33
35655;BME280;21773;50.010;19.972;2023-03-03T05:47:17;99003.44;;;3.14;50.84
35655;BME280;21773;50.010;19.972;2023-03-03T05:50:23;99006.56;;;3.25;51.04
35655;BME280;21773;50.010;19.972;2023-03-03T05:53:27;99009.72;;;3.37;51.19
35655;BME280;21773;50.010;19.972;2023-03-03T05:56:30;99003.13;;;3.47;51.52
35655;BME280;21773;50.010;19.972;2023-03-03T05:59:33;99021.41;;;3.59;51.46
35655;BME280;21773;50.010;19.972;2023-03-03T06:02:38;99003.94;;;3.56;51.99
35655;BME280;21773;50.010;19.972;2023-03-03T06:05:42;99018.31;;;3.78;52.50
35655;BME280;21773;50.010;19.972;2023-03-03T06:08:45;99026.94;;;3.88;52.43
35655;BME280;21773;50.010;19.972;2023-03-03T06:11:48;99014.25;;;3.90;52.67
35655;BME280;21773;50.010;19.972;2023-03-03T06:14:54;99026.53;;;3.99;52.59
35655;BME280;21773;50.010;19.972;2023-03-03T06:17:59;99034.59;;;4.14;52.55
35655;BME280;21773;50.010;19.972;2023-03-03T06:21:02;99032.84;;;4.29;52.24
35655;BME280;21773;50.010;19.972;2023-03-03T06:24:06;99033.78;;;4.36;52.06
35655;BME280;21773;50.010;19.972;2023-03-03T06:27:10;99037.16;;;4.53;52.39
35655;BME280;21773;50.010;19.972;2023-03-03T06:30:14;99045.22;;;4.67;52.04
35655;BME280;21773;50.010;19.972;2023-03-03T06:33:18;99042.81;;;4.72;52.40
35655;BME280;21773;50.010;19.972;2023-03-03T06:36:23;99052.88;;;4.85;51.82
35655;BME280;21773;50.010;19.972;2023-03-03T06:39:27;99055.78;;;4.98;52.19
35655;BME280;21773;50.010;19.972;2023-03-03T06:42:30;99074.03;;;5.09;52.10
35655;BME280;21773;50.010;19.972;2023-03-03T06:45:33;99058.38;;;5.21;52.03
35655;BME280;21773;50.010;19.972;2023-03-03T06:48:38;99053.94;;;5.28;51.35
35655;BME280;21773;50.010;19.972;2023-03-03T06:51:41;99052.75;;;5.31;51.08
35655;BME280;21773;50.010;19.972;2023-03-03T06:54:47;99044.91;;;5.29;50.83
35655;BME280;21773;50.010;19.972;2023-03-03T06:57:50;99041.63;;;5.27;50.97
35655;BME280;21773;50.010;19.972;2023-03-03T07:00:58;99039.22;;;5.32;50.70
35655;BME280;21773;50.010;19.972;2023-03-03T07:04:10;99030.66;;;5.37;50.43
35655;BME280;21773;50.010;19.972;2023-03-03T07:07:18;99038.56;;;5.45;51.13
35655;BME280;21773;50.010;19.972;2023-03-03T07:10:24;99041.63;;;5.42;51.72
35655;BME280;21773;50.010;19.972;2023-03-03T07:13:28;99035.72;;;5.46;52.09
35655;BME280;21773;50.010;19.972;2023-03-03T07:16:31;99032.75;;;5.56;51.70
35655;BME280;21773;50.010;19.972;2023-03-03T07:19:36;99024.78;;;5.62;51.99
35655;BME280;21773;50.010;19.972;2023-03-03T07:22:42;99022.88;;;5.71;51.99
35655;BME280;21773;50.010;19.972;2023-03-03T07:25:45;99022.31;;;6.12;51.18
35655;BME280;21773;50.010;19.972;2023-03-03T07:28:54;99032.75;;;6.70;50.47
35655;BME280;21773;50.010;19.972;2023-03-03T07:31:58;99029.81;;;6.86;50.02
35655;BME280;21773;50.010;19.972;2023-03-03T07:35:21;99026.88;;;6.81;49.80
35655;BME280;21773;50.010;19.972;2023-03-03T07:38:34;99017.22;;;6.87;50.09
35655;BME280;21773;50.010;19.972;2023-03-03T07:41:39;99011.38;;;7.05;49.62
35655;BME280;21773;50.010;19.972;2023-03-03T07:44:44;99001.94;;;7.50;48.45
35655;BME280;21773;50.010;19.972;2023-03-03T07:47:47;99002.28;;;7.81;48.01
35655;BME280;21773;50.010;19.972;2023-03-03T07:50:52;98993.97;;;8.37;46.52
35655;BME280;21773;50.010;19.972;2023-03-03T07:54:16;98985.09;;;8.62;46.28
35655;BME280;21773;50.010;19.972;2023-03-03T07:57:30;98994.63;;;8.72;45.91
35655;BME280;21773;50.010;19.972;2023-03-03T08:04:19;98987.56;;;9.03;45.08
35655;BME280;21773;50.010;19.972;2023-03-03T08:07:29;99000.59;;;9.77;44.09
35655;BME280;21773;50.010;19.972;2023-03-03T08:10:36;99001.66;;;10.14;43.06
35655;BME280;21773;50.010;19.972;2023-03-03T08:13:44;98991.81;;;9.95;43.27
35655;BME280;21773;50.010;19.972;2023-03-03T08:16:48;98981.75;;;9.77;43.37
35655;BME280;21773;50.010;19.972;2023-03-03T08:19:52;98980.03;;;9.83;44.04
35655;BME280;21773;50.010;19.972;2023-03-03T08:22:58;98984.16;;;9.92;43.40
35655;BME280;21773;50.010;19.972;2023-03-03T08:26:02;98989.28;;;10.07;43.26
35655;BME280;21773;50.010;19.972;2023-03-03T08:29:05;99008.50;;;10.17;43.27
35655;BME280;21773;50.010;19.972;2023-03-03T08:32:09;99005.47;;;10.00;43.63
35655;BME280;21773;50.010;19.972;2023-03-03T08:35:12;99014.00;;;9.90;43.71
35655;BME280;21773;50.010;19.972;2023-03-03T08:38:19;99025.88;;;9.70;44.18
35655;BME280;21773;50.010;19.972;2023-03-03T08:41:23;99024.47;;;9.54;44.44
35655;BME280;21773;50.010;19.972;2023-03-03T08:44:26;99017.69;;;9.45;44.40
35655;BME280;21773;50.010;19.972;2023-03-03T08:47:30;99003.63;;;9.36;44.60
35655;BME280;21773;50.010;19.972;2023-03-03T08:50:33;99012.72;;;9.42;44.53
35655;BME280;21773;50.010;19.972;2023-03-03T08:53:38;99013.13;;;9.39;44.52
35655;BME280;21773;50.010;19.972;2023-03-03T08:56:42;99008.38;;;9.34;44.48
35655;BME280;21773;50.010;19.972;2023-03-03T08:59:45;99021.63;;;9.29;44.33
35655;BME280;21773;50.010;19.972;2023-03-03T09:02:49;98994.19;;;9.07;44.29
35655;BME280;21773;50.010;19.972;2023-03-03T09:05:52;99031.00;;;9.00;45.01
35655;BME280;21773;50.010;19.972;2023-03-03T09:08:57;99029.75;;;8.90;45.20
35655;BME280;21773;50.010;19.972;2023-03-03T09:12:13;99015.72;;;8.75;45.84
35655;BME280;21773;50.010;19.972;2023-03-03T09:15:23;99029.53;;;8.85;45.79
35655;BME280;21773;50.010;19.972;2023-03-03T09:18:30;99035.34;;;9.01;45.55
35655;BME280;21773;50.010;19.972;2023-03-03T09:21:37;99031.19;;;9.12;45.41
35655;BME280;21773;50.010;19.972;2023-03-03T09:24:42;99039.66;;;9.16;45.40
35655;BME280;21773;50.010;19.972;2023-03-03T09:27:45;99034.69;;;9.19;44.94
35655;BME280;21773;50.010;19.972;2023-03-03T09:30:50;99018.75;;;9.24;44.96
35655;BME280;21773;50.010;19.972;2023-03-03T09:33:53;99011.91;;;9.35;44.95
35655;BME280;21773;50.010;19.972;2023-03-03T09:37:15;99007.72;;;9.52;44.90
35655;BME280;21773;50.010;19.972;2023-03-03T09:40:40;98994.84;;;9.61;44.42
35655;BME280;21773;50.010;19.972;2023-03-03T09:44:10;99018.81;;;9.82;44.65
35655;BME280;21773;50.010;19.972;2023-03-03T09:47:34;99014.78;;;9.97;44.39
35655;BME280;21773;50.010;19.972;2023-03-03T09:50:48;99011.22;;;10.04;43.97
35655;BME280;21773;50.010;19.972;2023-03-03T09:54:04;99024.09;;;10.02;44.24
35655;BME280;21773;50.010;19.972;2023-03-03T09:57:14;99018.47;;;10.03;44.10
35655;BME280;21773;50.010;19.972;2023-03-03T10:00:26;99021.63;;;10.00;44.21
35655;BME280;21773;50.010;19.972;2023-03-03T10:03:53;99018.72;;;10.02;44.58
35655;BME280;21773;50.010;19.972;2023-03-03T10:07:17;99011.41;;;10.09;44.40
35655;BME280;21773;50.010;19.972;2023-03-03T10:10:37;99004.25;;;9.96;44.59
35655;BME280;21773;50.010;19.972;2023-03-03T10:14:07;99020.28;;;10.22;43.95
35655;BME280;21773;50.010;19.972;2023-03-03T10:17:36;99016.38;;;10.18;44.21
35655;BME280;21773;50.010;19.972;2023-03-03T10:20:52;99022.13;;;10.22;44.20
35655;BME280;21773;50.010;19.972;2023-03-03T10:24:05;99024.59;;;10.30;43.95
35655;BME280;21773;50.010;19.972;2023-03-03T10:27:27;99016.63;;;10.41;43.49
35655;BME280;21773;50.010;19.972;2023-03-03T10:30:47;99023.09;;;10.40;43.76
35655;BME280;21773;50.010;19.972;2023-03-03T10:34:23;99023.19;;;10.52;43.44
35655;BME280;21773;50.010;19.972;2023-03-03T10:37:39;99032.66;;;10.61;43.27
35655;BME280;21773;50.010;19.972;2023-03-03T10:40:50;99026.75;;;10.46;43.34
35655;BME280;21773;50.010;19.972;2023-03-03T10:44:20;99030.00;;;10.30;43.80
35655;BME280;21773;50.010;19.972;2023-03-03T10:47:36;99025.00;;;10.27;43.83
35655;BME280;21773;50.010;19.972;2023-03-03T10:50:50;99026.03;;;10.32;43.91
35655;BME280;21773;50.010;19.972;2023-03-03T10:54:11;99019.13;;;10.43;43.70
35655;BME280;21773;50.010;19.972;2023-03-03T10:57:25;99030.47;;;10.52;43.76
35655;BME280;21773;50.010;19.972;2023-03-03T11:00:37;99033.38;;;10.50;43.61
35655;BME280;21773;50.010;19.972;2023-03-03T11:04:06;99038.53;;;10.52;43.40
35655;BME280;21773;50.010;19.972;2023-03-03T11:07:12;99042.63;;;10.61;43.30
35655;BME280;21773;50.010;19.972;2023-03-03T11:10:40;99039.53;;;10.57;43.07
35655;BME280;21773;50.010;19.972;2023-03-03T11:13:52;99049.59;;;10.43;43.14
35655;BME280;21773;50.010;19.972;2023-03-03T11:17:03;99047.28;;;10.47;42.86
35655;BME280;21773;50.010;19.972;2023-03-03T11:20:25;99041.16;;;10.33;43.26
35655;BME280;21773;50.010;19.972;2023-03-03T11:27:20;99057.66;;;10.06;43.67
35655;BME280;21773;50.010;19.972;2023-03-03T11:30:53;99050.50;;;9.80;44.07
35655;BME280;21773;50.010;19.972;2023-03-03T11:34:11;99040.19;;;9.64;44.73
35655;BME280;21773;50.010;19.972;2023-03-03T11:37:21;99037.47;;;9.70;44.43
35655;BME280;21773;50.010;19.972;2023-03-03T11:40:29;99036.22;;;9.73;44.28
35655;BME280;21773;50.010;19.972;2023-03-03T11:43:39;99038.50;;;9.69;44.35
35655;BME280;21773;50.010;19.972;2023-03-03T11:46:48;99035.44;;;9.66;44.48
35655;BME280;21773;50.010;19.972;2023-03-03T11:49:56;99030.50;;;9.56;44.23
35655;BME280;21773;50.010;19.972;2023-03-03T11:53:19;99040.47;;;9.42;44.86
35655;BME280;21773;50.010;19.972;2023-03-03T11:56:29;99038.44;;;9.05;45.69
35655;BME280;21773;50.010;19.972;2023-03-03T12:03:20;99033.50;;;8.89;46.39
35655;BME280;21773;50.010;19.972;2023-03-03T12:06:35;99035.13;;;8.70;46.61
35655;BME280;21773;50.010;19.972;2023-03-03T12:09:50;99028.72;;;8.71;46.89
35655;BME280;21773;50.010;19.972;2023-03-03T12:13:02;99032.44;;;8.77;46.63
35655;BME280;21773;50.010;19.972;2023-03-03T12:16:14;99032.25;;;8.91;46.09
35655;BME280;21773;50.010;19.972;2023-03-03T12:19:25;99028.94;;;8.89;46.05
35655;BME280;21773;50.010;19.972;2023-03-03T12:22:33;99025.44;;;8.82;45.72
35655;BME280;21773;50.010;19.972;2023-03-03T12:25:41;99019.84;;;8.57;46.12
35655;BME280;21773;50.010;19.972;2023-03-03T12:28:50;99030.78;;;8.49;46.51
35655;BME280;21773;50.010;19.972;2023-03-03T12:32:03;99030.78;;;8.49;46.46
35655;BME280;21773;50.010;19.972;2023-03-03T12:35:19;99032.44;;;8.44;46.43
35655;BME280;21773;50.010;19.972;2023-03-03T12:38:34;99027.91;;;8.57;45.89
35655;BME280;21773;50.010;19.972;2023-03-03T12:41:45;99025.81;;;8.66;45.46
35655;BME280;21773;50.010;19.972;2023-03-03T12:45:00;99026.06;;;8.64;45.79
35655;BME280;21773;50.010;19.972;2023-03-03T12:48:08;99013.59;;;8.50;45.60
35655;BME280;21773;50.010;19.972;2023-03-03T12:51:24;99029.53;;;8.39;45.96
35655;BME280;21773;50.010;19.972;2023-03-03T12:54:46;99015.47;;;8.30;46.24
35655;BME280;21773;50.010;19.972;2023-03-03T12:57:59;99021.44;;;8.32;46.49
35655;BME280;21773;50.010;19.972;2023-03-03T13:01:19;99018.56;;;8.34;46.52
35655;BME280;21773;50.010;19.972;2023-03-03T13:04:36;99004.88;;;8.28;46.76
35655;BME280;21773;50.010;19.972;2023-03-03T13:07:47;99007.34;;;8.17;47.02
35655;BME280;21773;50.010;19.972;2023-03-03T13:11:00;99006.03;;;7.93;47.83
35655;BME280;21773;50.010;19.972;2023-03-03T13:14:16;99009.78;;;7.99;47.84
35655;BME280;21773;50.010;19.972;2023-03-03T13:17:27;99005.22;;;7.99;47.30
35655;BME280;21773;50.010;19.972;2023-03-03T13:20:39;99014.88;;;7.87;46.90
35655;BME280;21773;50.010;19.972;2023-03-03T13:23:50;99004.06;;;7.67;47.72
35655;BME280;21773;50.010;19.972;2023-03-03T13:26:59;99010.13;;;7.76;47.80
35655;BME280;21773;50.010;19.972;2023-03-03T13:30:15;99008.38;;;7.55;47.81
35655;BME280;21773;50.010;19.972;2023-03-03T13:33:24;99018.28;;;7.55;48.42
35655;BME280;21773;50.010;19.972;2023-03-03T13:36:33;99017.91;;;7.64;48.11
35655;BME280;21773;50.010;19.972;2023-03-03T13:39:51;99022.66;;;7.62;48.32
35655;BME280;21773;50.010;19.972;2023-03-03T13:42:59;99016.47;;;7.62;48.27
35655;BME280;21773;50.010;19.972;2023-03-03T13:46:12;99025.53;;;7.61;48.17
35655;BME280;21773;50.010;19.972;2023-03-03T13:49:30;99023.03;;;7.59;48.49
35655;BME280;21773;50.010;19.972;2023-03-03T13:52:44;99020.91;;;7.48;48.52
35655;BME280;21773;50.010;19.972;2023-03-03T13:55:59;99023.53;;;7.35;48.95
35655;BME280;21773;50.010;19.972;2023-03-03T13:59:16;99017.22;;;7.15;49.31
35655;BME280;21773;50.010;19.972;2023-03-03T14:02:39;99011.59;;;7.10;49.44
35655;BME280;21773;50.010;19.972;2023-03-03T14:05:48;99013.91;;;7.13;49.65
35655;BME280;21773;50.010;19.972;2023-03-03T14:09:11;99015.63;;;6.92;50.11
35655;BME280;21773;50.010;19.972;2023-03-03T14:12:25;99025.53;;;6.92;49.93
35655;BME280;21773;50.010;19.972;2023-03-03T14:15:33;99021.75;;;6.86;50.03
35655;BME280;21773;50.010;19.972;2023-03-03T14:18:47;99015.03;;;6.97;49.64
35655;BME280;21773;50.010;19.972;2023-03-03T14:22:04;99005.75;;;7.00;49.16
35655;BME280;21773;50.010;19.972;2023-03-03T14:25:10;99012.97;;;6.99;49.34
35655;BME280;21773;50.010;19.972;2023-03-03T14:28:15;99004.03;;;6.85;49.56
35655;BME280;21773;50.010;19.972;2023-03-03T14:31:24;99002.34;;;6.84;49.48
35655;BME280;21773;50.010;19.972;2023-03-03T14:34:37;99005.69;;;6.86;49.52
35655;BME280;21773;50.010;19.972;2023-03-03T14:37:44;98989.75;;;6.78;49.50
35655;BME280;21773;50.010;19.972;2023-03-03T14:40:48;99006.94;;;6.90;49.74
35655;BME280;21773;50.010;19.972;2023-03-03T14:43:58;98994.31;;;6.84;49.10
35655;BME280;21773;50.010;19.972;2023-03-03T14:47:16;99009.53;;;6.77;49.33
35655;BME280;21773;50.010;19.972;2023-03-03T14:50:37;99016.66;;;6.91;48.69
35655;BME280;21773;50.010;19.972;2023-03-03T14:53:42;99011.72;;;6.95;48.21
35655;BME280;21773;50.010;19.972;2023-03-03T14:56:58;99007.84;;;6.97;48.33
35655;BME280;21773;50.010;19.972;2023-03-03T15:00:24;99008.19;;;6.94;48.38
35655;BME280;21773;50.010;19.972;2023-03-03T15:03:29;99005.34;;;6.96;48.13
35655;BME280;21773;50.010;19.972;2023-03-03T15:06:37;99005.25;;;6.83;48.44
35655;BME280;21773;50.010;19.972;2023-03-03T15:09:48;99007.94;;;6.83;48.39
35655;BME280;21773;50.010;19.972;2023-03-03T15:12:51;99004.66;;;6.87;48.26
35655;BME280;21773;50.010;19.972;2023-03-03T15:16:04;99007.38;;;6.94;48.46
35655;BME280;21773;50.010;19.972;2023-03-03T15:19:36;99010.63;;;6.89;48.73
35655;BME280;21773;50.010;19.972;2023-03-03T15:22:48;98995.41;;;6.62;49.07
35655;BME280;21773;50.010;19.972;2023-03-03T15:25:57;98994.56;;;6.62;48.99
35655;BME280;21773;50.010;19.972;2023-03-03T15:29:06;99011.44;;;6.83;48.93
35655;BME280;21773;50.010;19.972;2023-03-03T15:32:17;99010.59;;;6.83;48.72
35655;BME280;21773;50.010;19.972;2023-03-03T15:35:33;98999.06;;;6.82;48.51
35655;BME280;21773;50.010;19.972;2023-03-03T15:38:49;98998.31;;;6.95;48.17
35655;BME280;21773;50.010;19.972;2023-03-03T15:42:02;98969.59;;;6.82;48.04
35655;BME280;21773;50.010;19.972;2023-03-03T15:45:18;98986.56;;;6.96;47.79
35655;BME280;21773;50.010;19.972;2023-03-03T15:48:39;98991.25;;;6.87;48.32
35655;BME280;21773;50.010;19.972;2023-03-03T15:52:03;98977.44;;;6.84;48.12
35655;BME280;21773;50.010;19.972;2023-03-03T15:59:00;98997.16;;;6.76;48.38
35655;BME280;21773;50.010;19.972;2023-03-03T16:02:15;99004.84;;;6.86;48.13
35655;BME280;21773;50.010;19.972;2023-03-03T16:05:22;98999.13;;;6.89;47.40
35655;BME280;21773;50.010;19.972;2023-03-03T16:08:30;99011.72;;;6.95;47.42
35655;BME280;21773;50.010;19.972;2023-03-03T16:11:47;99016.31;;;7.01;47.38
35655;BME280;21773;50.010;19.972;2023-03-03T16:15:04;99012.34;;;6.97;47.61
35655;BME280;21773;50.010;19.972;2023-03-03T16:18:21;99013.97;;;6.91;47.66
35655;BME280;21773;50.010;19.972;2023-03-03T16:25:06;99017.53;;;6.99;47.49
35655;BME280;21773;50.010;19.972;2023-03-03T16:28:25;99016.72;;;7.05;47.33
35655;BME280;21773;50.010;19.972;2023-03-03T16:31:34;99004.25;;;6.90;47.10
35655;BME280;21773;50.010;19.972;2023-03-03T16:34:46;99034.22;;;7.01;47.38
35655;BME280;21773;50.010;19.972;2023-03-03T16:37:59;99030.09;;;6.98;47.49
35655;BME280;21773;50.010;19.972;2023-03-03T16:41:06;99026.53;;;6.91;47.48
35655;BME280;21773;50.010;19.972;2023-03-03T16:44:31;99035.59;;;6.90;47.78
35655;BME280;21773;50.010;19.972;2023-03-03T16:47:43;99035.56;;;6.83;47.77
35655;BME280;21773;50.010;19.972;2023-03-03T16:51:11;99040.66;;;6.78;47.99
35655;BME280;21773;50.010;19.972;2023-03-03T16:54:21;99033.81;;;6.69;47.95
35655;BME280;21773;50.010;19.972;2023-03-03T16:57:33;99034.84;;;6.75;47.96
35655;BME280;21773;50.010;19.972;2023-03-03T17:00:51;99040.47;;;6.80;47.67